sensor_id;sensor_type;location;lat;lon;timestamp;P1;durP1;ratioP1;P2;durP2;ratioP2
57707;SDS011;43540;51.690;9.562;2023-11-21T00:02:21;3.95;;;2.28;;
57707;SDS011;43540;51.690;9.562;2023-11-21T00:04:49;4.43;;;1.98;;
57707;SDS011;43540;51.690;9.562;2023-11-21T00:07:15;3.88;;;2.22;;
57707;SDS011;43540;51.690;9.562;2023-11-21T00:09:43;3.72;;;2.13;;
57707;SDS011;43540;51.690;9.562;2023-11-21T00:12:20;4.95;;;2.25;;
57707;SDS011;43540;51.690;9.562;2023-11-21T00:14:47;6.50;;;2.30;;
57707;SDS011;43540;51.690;9.562;2023-11-21T00:17:16;6.25;;;2.88;;
57707;SDS011;43540;51.690;9.562;2023-11-21T00:19:43;3.60;;;2.15;;
57707;SDS011;43540;51.690;9.562;2023-11-21T00:22:09;4.50;;;2.63;;
57707;SDS011;43540;51.690;9.562;2023-11-21T00:24:36;7.32;;;2.80;;
57707;SDS011;43540;51.690;9.562;2023-11-21T00:27:03;7.55;;;2.70;;
57707;SDS011;43540;51.690;9.562;2023-11-21T00:29:30;4.75;;;2.90;;
57707;SDS011;43540;51.690;9.562;2023-11-21T00:31:57;5.32;;;2.63;;
57707;SDS011;43540;51.690;9.562;2023-11-21T00:34:24;6.95;;;2.70;;
57707;SDS011;43540;51.690;9.562;2023-11-21T00:36:54;5.00;;;2.65;;
57707;SDS011;43540;51.690;9.562;2023-11-21T00:39:21;8.48;;;3.08;;
57707;SDS011;43540;51.690;9.562;2023-11-21T00:41:48;8.55;;;3.38;;
57707;SDS011;43540;51.690;9.562;2023-11-21T00:44:15;5.10;;;3.10;;
57707;SDS011;43540;51.690;9.562;2023-11-21T00:46:42;8.88;;;3.60;;
57707;SDS011;43540;51.690;9.562;2023-11-21T00:49:09;10.73;;;3.97;;
57707;SDS011;43540;51.690;9.562;2023-11-21T00:51:35;8.15;;;3.72;;
57707;SDS011;43540;51.690;9.562;2023-11-21T00:54:02;8.73;;;3.70;;
57707;SDS011;43540;51.690;9.562;2023-11-21T00:56:29;8.95;;;4.10;;
57707;SDS011;43540;51.690;9.562;2023-11-21T00:58:56;11.57;;;3.88;;
57707;SDS011;43540;51.690;9.562;2023-11-21T01:01:22;9.88;;;3.72;;
57707;SDS011;43540;51.690;9.562;2023-11-21T01:03:50;9.63;;;3.65;;
57707;SDS011;43540;51.690;9.562;2023-11-21T01:06:17;8.85;;;4.03;;
57707;SDS011;43540;51.690;9.562;2023-11-21T01:08:44;11.45;;;4.45;;
57707;SDS011;43540;51.690;9.562;2023-11-21T01:11:11;11.63;;;4.80;;
57707;SDS011;43540;51.690;9.562;2023-11-21T01:13:41;11.85;;;4.82;;
57707;SDS011;43540;51.690;9.562;2023-11-21T01:16:08;12.73;;;5.20;;
57707;SDS011;43540;51.690;9.562;2023-11-21T01:18:35;8.02;;;4.28;;
57707;SDS011;43540;51.690;9.562;2023-11-21T01:21:02;12.77;;;4.95;;
57707;SDS011;43540;51.690;9.562;2023-11-21T01:23:29;14.82;;;5.07;;
57707;SDS011;43540;51.690;9.562;2023-11-21T01:25:56;13.05;;;5.20;;
57707;SDS011;43540;51.690;9.562;2023-11-21T01:28:23;9.70;;;4.75;;
57707;SDS011;43540;51.690;9.562;2023-11-21T01:30:50;8.82;;;4.53;;
57707;SDS011;43540;51.690;9.562;2023-11-21T01:33:17;14.25;;;5.15;;
57707;SDS011;43540;51.690;9.562;2023-11-21T01:35:44;12.32;;;4.65;;
57707;SDS011;43540;51.690;9.562;2023-11-21T01:38:13;12.90;;;4.97;;
57707;SDS011;43540;51.690;9.562;2023-11-21T01:40:40;9.70;;;4.20;;
57707;SDS011;43540;51.690;9.562;2023-11-21T01:43:07;9.15;;;4.50;;
57707;SDS011;43540;51.690;9.562;2023-11-21T01:45:35;9.23;;;3.95;;
57707;SDS011;43540;51.690;9.562;2023-11-21T01:48:01;9.98;;;4.38;;
57707;SDS011;43540;51.690;9.562;2023-11-21T01:50:29;10.68;;;4.60;;
57707;SDS011;43540;51.690;9.562;2023-11-21T01:53:05;9.65;;;3.95;;
57707;SDS011;43540;51.690;9.562;2023-11-21T01:55:36;10.38;;;4.30;;
57707;SDS011;43540;51.690;9.562;2023-11-21T01:58:03;13.38;;;5.00;;
57707;SDS011;43540;51.690;9.562;2023-11-21T02:00:30;13.77;;;4.80;;
57707;SDS011;43540;51.690;9.562;2023-11-21T02:02:57;9.75;;;4.32;;
57707;SDS011;43540;51.690;9.562;2023-11-21T02:05:29;10.48;;;4.38;;
57707;SDS011;43540;51.690;9.562;2023-11-21T02:07:56;10.07;;;4.45;;
57707;SDS011;43540;51.690;9.562;2023-11-21T02:10:23;11.25;;;4.65;;
57707;SDS011;43540;51.690;9.562;2023-11-21T02:12:50;10.52;;;5.13;;
57707;SDS011;43540;51.690;9.562;2023-11-21T02:15:18;11.95;;;5.57;;
57707;SDS011;43540;51.690;9.562;2023-11-21T02:17:49;11.85;;;4.75;;
57707;SDS011;43540;51.690;9.562;2023-11-21T02:20:22;10.90;;;5.10;;
57707;SDS011;43540;51.690;9.562;2023-11-21T02:22:52;12.73;;;5.30;;
57707;SDS011;43540;51.690;9.562;2023-11-21T02:25:27;10.75;;;5.00;;
57707;SDS011;43540;51.690;9.562;2023-11-21T02:27:56;10.02;;;4.82;;
57707;SDS011;43540;51.690;9.562;2023-11-21T02:30:23;13.23;;;5.47;;
57707;SDS011;43540;51.690;9.562;2023-11-21T02:32:51;12.27;;;4.90;;
57707;SDS011;43540;51.690;9.562;2023-11-21T02:35:21;14.73;;;5.53;;
57707;SDS011;43540;51.690;9.562;2023-11-21T02:37:48;12.43;;;5.57;;
57707;SDS011;43540;51.690;9.562;2023-11-21T02:40:16;12.00;;;5.13;;
57707;SDS011;43540;51.690;9.562;2023-11-21T02:42:47;11.45;;;5.30;;
57707;SDS011;43540;51.690;9.562;2023-11-21T02:45:15;11.63;;;4.72;;
57707;SDS011;43540;51.690;9.562;2023-11-21T02:47:45;9.73;;;5.13;;
57707;SDS011;43540;51.690;9.562;2023-11-21T02:50:12;13.88;;;4.80;;
57707;SDS011;43540;51.690;9.562;2023-11-21T02:52:39;8.93;;;5.00;;
57707;SDS011;43540;51.690;9.562;2023-11-21T02:55:09;11.15;;;5.03;;
57707;SDS011;43540;51.690;9.562;2023-11-21T02:57:38;9.45;;;4.85;;
57707;SDS011;43540;51.690;9.562;2023-11-21T03:00:05;8.55;;;4.60;;
57707;SDS011;43540;51.690;9.562;2023-11-21T03:02:42;9.88;;;4.70;;
57707;SDS011;43540;51.690;9.562;2023-11-21T03:05:10;11.18;;;5.20;;
57707;SDS011;43540;51.690;9.562;2023-11-21T03:07:37;14.80;;;6.70;;
57707;SDS011;43540;51.690;9.562;2023-11-21T03:10:05;12.32;;;5.40;;
57707;SDS011;43540;51.690;9.562;2023-11-21T03:12:36;12.05;;;5.80;;
57707;SDS011;43540;51.690;9.562;2023-11-21T03:15:12;11.93;;;6.40;;
57707;SDS011;43540;51.690;9.562;2023-11-21T03:17:39;11.95;;;5.78;;
57707;SDS011;43540;51.690;9.562;2023-11-21T03:20:06;11.80;;;6.15;;
57707;SDS011;43540;51.690;9.562;2023-11-21T03:22:37;11.52;;;5.90;;
57707;SDS011;43540;51.690;9.562;2023-11-21T03:25:05;13.38;;;5.95;;
57707;SDS011;43540;51.690;9.562;2023-11-21T03:27:32;14.82;;;5.72;;
57707;SDS011;43540;51.690;9.562;2023-11-21T03:29:59;17.42;;;5.38;;
57707;SDS011;43540;51.690;9.562;2023-11-21T03:32:26;10.88;;;5.75;;
57707;SDS011;43540;51.690;9.562;2023-11-21T03:34:56;13.25;;;6.22;;
57707;SDS011;43540;51.690;9.562;2023-11-21T03:37:25;17.45;;;5.93;;
57707;SDS011;43540;51.690;9.562;2023-11-21T03:39:54;13.30;;;6.20;;
57707;SDS011;43540;51.690;9.562;2023-11-21T03:42:22;14.80;;;6.15;;
57707;SDS011;43540;51.690;9.562;2023-11-21T03:44:49;11.88;;;6.00;;
57707;SDS011;43540;51.690;9.562;2023-11-21T03:47:16;13.73;;;6.30;;
57707;SDS011;43540;51.690;9.562;2023-11-21T03:49:49;22.42;;;7.38;;
57707;SDS011;43540;51.690;9.562;2023-11-21T03:52:16;19.73;;;6.15;;
57707;SDS011;43540;51.690;9.562;2023-11-21T03:54:43;21.63;;;5.90;;
57707;SDS011;43540;51.690;9.562;2023-11-21T03:57:10;12.90;;;6.25;;
57707;SDS011;43540;51.690;9.562;2023-11-21T03:59:41;12.73;;;5.78;;
57707;SDS011;43540;51.690;9.562;2023-11-21T04:02:08;11.27;;;5.95;;
57707;SDS011;43540;51.690;9.562;2023-11-21T04:04:35;14.85;;;6.28;;
57707;SDS011;43540;51.690;9.562;2023-11-21T04:07:03;11.68;;;6.20;;
57707;SDS011;43540;51.690;9.562;2023-11-21T04:09:30;11.80;;;6.05;;
57707;SDS011;43540;51.690;9.562;2023-11-21T04:11:57;15.35;;;6.07;;
57707;SDS011;43540;51.690;9.562;2023-11-21T04:14:24;18.42;;;5.40;;
57707;SDS011;43540;51.690;9.562;2023-11-21T04:16:51;38.55;;;6.00;;
57707;SDS011;43540;51.690;9.562;2023-11-21T04:19:18;16.88;;;5.60;;
57707;SDS011;43540;51.690;9.562;2023-11-21T04:21:45;11.40;;;5.60;;
57707;SDS011;43540;51.690;9.562;2023-11-21T04:24:12;26.63;;;5.85;;
57707;SDS011;43540;51.690;9.562;2023-11-21T04:26:39;21.52;;;6.07;;
57707;SDS011;43540;51.690;9.562;2023-11-21T04:29:05;11.95;;;5.53;;
57707;SDS011;43540;51.690;9.562;2023-11-21T04:31:32;15.23;;;5.70;;
57707;SDS011;43540;51.690;9.562;2023-11-21T04:33:59;12.13;;;5.25;;
57707;SDS011;43540;51.690;9.562;2023-11-21T04:36:26;30.13;;;6.07;;
57707;SDS011;43540;51.690;9.562;2023-11-21T04:38:52;12.25;;;5.28;;
57707;SDS011;43540;51.690;9.562;2023-11-21T04:41:19;13.60;;;6.35;;
57707;SDS011;43540;51.690;9.562;2023-11-21T04:43:46;37.88;;;6.20;;
57707;SDS011;43540;51.690;9.562;2023-11-21T04:46:13;22.77;;;5.43;;
57707;SDS011;43540;51.690;9.562;2023-11-21T04:48:40;12.98;;;5.70;;
57707;SDS011;43540;51.690;9.562;2023-11-21T04:51:07;14.40;;;5.28;;
57707;SDS011;43540;51.690;9.562;2023-11-21T04:53:34;16.25;;;6.07;;
57707;SDS011;43540;51.690;9.562;2023-11-21T04:56:05;9.52;;;5.13;;
57707;SDS011;43540;51.690;9.562;2023-11-21T04:58:33;26.67;;;5.22;;
57707;SDS011;43540;51.690;9.562;2023-11-21T05:00:59;73.93;;;8.20;;
57707;SDS011;43540;51.690;9.562;2023-11-21T05:03:27;13.77;;;5.50;;
57707;SDS011;43540;51.690;9.562;2023-11-21T05:05:59;19.15;;;6.10;;
57707;SDS011;43540;51.690;9.562;2023-11-21T05:08:26;26.58;;;6.18;;
57707;SDS011;43540;51.690;9.562;2023-11-21T05:10:53;12.80;;;5.43;;
57707;SDS011;43540;51.690;9.562;2023-11-21T05:13:20;10.75;;;5.05;;
57707;SDS011;43540;51.690;9.562;2023-11-21T05:15:48;12.63;;;5.13;;
57707;SDS011;43540;51.690;9.562;2023-11-21T05:18:15;13.13;;;5.40;;
57707;SDS011;43540;51.690;9.562;2023-11-21T05:20:45;13.95;;;5.50;;
57707;SDS011;43540;51.690;9.562;2023-11-21T05:23:13;9.52;;;4.43;;
57707;SDS011;43540;51.690;9.562;2023-11-21T05:25:40;13.23;;;5.43;;
57707;SDS011;43540;51.690;9.562;2023-11-21T05:28:07;14.30;;;5.82;;
57707;SDS011;43540;51.690;9.562;2023-11-21T05:30:34;12.13;;;5.40;;
57707;SDS011;43540;51.690;9.562;2023-11-21T05:33:01;12.32;;;5.95;;
57707;SDS011;43540;51.690;9.562;2023-11-21T05:35:36;14.32;;;6.43;;
57707;SDS011;43540;51.690;9.562;2023-11-21T05:38:03;13.68;;;6.10;;
57707;SDS011;43540;51.690;9.562;2023-11-21T05:40:31;13.77;;;6.28;;
57707;SDS011;43540;51.690;9.562;2023-11-21T05:42:58;13.02;;;6.07;;
57707;SDS011;43540;51.690;9.562;2023-11-21T05:45:25;13.70;;;6.20;;
57707;SDS011;43540;51.690;9.562;2023-11-21T05:47:52;13.00;;;6.05;;
57707;SDS011;43540;51.690;9.562;2023-11-21T05:50:19;14.23;;;6.43;;
57707;SDS011;43540;51.690;9.562;2023-11-21T05:52:46;18.50;;;7.10;;
57707;SDS011;43540;51.690;9.562;2023-11-21T05:55:17;15.68;;;6.60;;
57707;SDS011;43540;51.690;9.562;2023-11-21T05:57:50;14.05;;;6.75;;
57707;SDS011;43540;51.690;9.562;2023-11-21T06:00:18;11.15;;;5.65;;
57707;SDS011;43540;51.690;9.562;2023-11-21T06:02:48;11.43;;;5.88;;
57707;SDS011;43540;51.690;9.562;2023-11-21T06:05:23;13.45;;;6.10;;
57707;SDS011;43540;51.690;9.562;2023-11-21T06:07:54;13.43;;;6.30;;
57707;SDS011;43540;51.690;9.562;2023-11-21T06:10:24;15.60;;;6.38;;
57707;SDS011;43540;51.690;9.562;2023-11-21T06:12:51;17.85;;;7.10;;
57707;SDS011;43540;51.690;9.562;2023-11-21T06:15:19;14.18;;;6.35;;
57707;SDS011;43540;51.690;9.562;2023-11-21T06:17:50;15.68;;;7.18;;
57707;SDS011;43540;51.690;9.562;2023-11-21T06:20:20;15.93;;;6.78;;
57707;SDS011;43540;51.690;9.562;2023-11-21T06:22:49;16.17;;;7.00;;
57707;SDS011;43540;51.690;9.562;2023-11-21T06:25:16;15.82;;;6.50;;
57707;SDS011;43540;51.690;9.562;2023-11-21T06:27:45;13.82;;;5.65;;
57707;SDS011;43540;51.690;9.562;2023-11-21T06:30:14;16.70;;;6.47;;
57707;SDS011;43540;51.690;9.562;2023-11-21T06:32:42;13.93;;;6.20;;
57707;SDS011;43540;51.690;9.562;2023-11-21T06:35:13;14.95;;;5.90;;
57707;SDS011;43540;51.690;9.562;2023-11-21T06:37:43;11.57;;;5.35;;
57707;SDS011;43540;51.690;9.562;2023-11-21T06:40:15;13.27;;;6.18;;
57707;SDS011;43540;51.690;9.562;2023-11-21T06:42:42;14.15;;;5.85;;
57707;SDS011;43540;51.690;9.562;2023-11-21T06:45:10;12.02;;;5.70;;
57707;SDS011;43540;51.690;9.562;2023-11-21T06:47:39;16.10;;;6.82;;
57707;SDS011;43540;51.690;9.562;2023-11-21T06:50:06;17.75;;;7.75;;
57707;SDS011;43540;51.690;9.562;2023-11-21T06:52:33;17.20;;;7.80;;
57707;SDS011;43540;51.690;9.562;2023-11-21T06:55:00;21.30;;;7.93;;
57707;SDS011;43540;51.690;9.562;2023-11-21T06:57:27;18.13;;;7.38;;
57707;SDS011;43540;51.690;9.562;2023-11-21T06:59:54;18.90;;;7.65;;
57707;SDS011;43540;51.690;9.562;2023-11-21T07:02:23;18.70;;;7.32;;
57707;SDS011;43540;51.690;9.562;2023-11-21T07:04:50;24.35;;;8.15;;
57707;SDS011;43540;51.690;9.562;2023-11-21T07:07:22;20.52;;;7.80;;
57707;SDS011;43540;51.690;9.562;2023-11-21T07:09:49;18.70;;;7.20;;
57707;SDS011;43540;51.690;9.562;2023-11-21T07:12:16;16.17;;;6.72;;
57707;SDS011;43540;51.690;9.562;2023-11-21T07:14:42;15.68;;;7.05;;
57707;SDS011;43540;51.690;9.562;2023-11-21T07:17:20;19.88;;;7.53;;
57707;SDS011;43540;51.690;9.562;2023-11-21T07:20:12;19.23;;;7.95;;
57707;SDS011;43540;51.690;9.562;2023-11-21T07:22:41;15.25;;;7.00;;
57707;SDS011;43540;51.690;9.562;2023-11-21T07:25:08;14.20;;;6.18;;
57707;SDS011;43540;51.690;9.562;2023-11-21T07:27:36;16.35;;;6.95;;
57707;SDS011;43540;51.690;9.562;2023-11-21T07:30:03;16.25;;;6.25;;
57707;SDS011;43540;51.690;9.562;2023-11-21T07:32:31;17.08;;;7.57;;
57707;SDS011;43540;51.690;9.562;2023-11-21T07:34:58;16.77;;;7.07;;
57707;SDS011;43540;51.690;9.562;2023-11-21T07:37:27;15.68;;;6.78;;
57707;SDS011;43540;51.690;9.562;2023-11-21T07:39:55;22.90;;;9.95;;
57707;SDS011;43540;51.690;9.562;2023-11-21T07:42:23;19.77;;;9.23;;
57707;SDS011;43540;51.690;9.562;2023-11-21T07:44:52;20.98;;;9.35;;
57707;SDS011;43540;51.690;9.562;2023-11-21T07:47:19;19.75;;;10.07;;
57707;SDS011;43540;51.690;9.562;2023-11-21T07:49:46;22.05;;;10.50;;
57707;SDS011;43540;51.690;9.562;2023-11-21T07:52:13;20.27;;;9.30;;
57707;SDS011;43540;51.690;9.562;2023-11-21T07:54:42;21.92;;;10.05;;
57707;SDS011;43540;51.690;9.562;2023-11-21T07:57:09;26.52;;;10.48;;
57707;SDS011;43540;51.690;9.562;2023-11-21T07:59:42;23.35;;;9.70;;
57707;SDS011;43540;51.690;9.562;2023-11-21T08:02:09;25.65;;;12.05;;
57707;SDS011;43540;51.690;9.562;2023-11-21T08:04:36;22.95;;;9.65;;
57707;SDS011;43540;51.690;9.562;2023-11-21T08:07:03;23.80;;;9.88;;
57707;SDS011;43540;51.690;9.562;2023-11-21T08:09:30;21.73;;;9.48;;
57707;SDS011;43540;51.690;9.562;2023-11-21T08:11:57;22.30;;;8.95;;
57707;SDS011;43540;51.690;9.562;2023-11-21T08:14:23;21.15;;;9.10;;
57707;SDS011;43540;51.690;9.562;2023-11-21T08:16:53;19.58;;;8.30;;
57707;SDS011;43540;51.690;9.562;2023-11-21T08:19:24;19.48;;;7.93;;
57707;SDS011;43540;51.690;9.562;2023-11-21T08:21:54;20.80;;;9.00;;
57707;SDS011;43540;51.690;9.562;2023-11-21T08:24:21;23.98;;;9.00;;
57707;SDS011;43540;51.690;9.562;2023-11-21T08:26:48;20.20;;;7.63;;
57707;SDS011;43540;51.690;9.562;2023-11-21T08:29:15;19.35;;;7.72;;
57707;SDS011;43540;51.690;9.562;2023-11-21T08:31:42;19.00;;;7.45;;
57707;SDS011;43540;51.690;9.562;2023-11-21T08:34:13;16.83;;;6.50;;
57707;SDS011;43540;51.690;9.562;2023-11-21T08:36:44;18.30;;;7.30;;
57707;SDS011;43540;51.690;9.562;2023-11-21T08:39:12;16.92;;;7.72;;
57707;SDS011;43540;51.690;9.562;2023-11-21T08:41:39;19.50;;;7.75;;
57707;SDS011;43540;51.690;9.562;2023-11-21T08:44:06;15.52;;;7.43;;
57707;SDS011;43540;51.690;9.562;2023-11-21T08:46:33;16.85;;;8.25;;
57707;SDS011;43540;51.690;9.562;2023-11-21T08:49:01;16.92;;;8.00;;
57707;SDS011;43540;51.690;9.562;2023-11-21T08:51:28;16.65;;;8.38;;
57707;SDS011;43540;51.690;9.562;2023-11-21T08:53:54;19.23;;;8.88;;
57707;SDS011;43540;51.690;9.562;2023-11-21T08:56:25;17.73;;;8.30;;
57707;SDS011;43540;51.690;9.562;2023-11-21T08:58:52;17.65;;;8.50;;
57707;SDS011;43540;51.690;9.562;2023-11-21T09:01:19;19.73;;;9.15;;
57707;SDS011;43540;51.690;9.562;2023-11-21T09:03:45;15.25;;;8.05;;
57707;SDS011;43540;51.690;9.562;2023-11-21T09:06:13;15.10;;;7.93;;
57707;SDS011;43540;51.690;9.562;2023-11-21T09:08:40;16.23;;;7.90;;
57707;SDS011;43540;51.690;9.562;2023-11-21T09:11:08;15.65;;;7.80;;
57707;SDS011;43540;51.690;9.562;2023-11-21T09:13:35;15.90;;;8.15;;
57707;SDS011;43540;51.690;9.562;2023-11-21T09:16:02;17.63;;;9.45;;
57707;SDS011;43540;51.690;9.562;2023-11-21T09:18:38;17.65;;;8.23;;
57707;SDS011;43540;51.690;9.562;2023-11-21T09:21:05;15.85;;;8.05;;
57707;SDS011;43540;51.690;9.562;2023-11-21T09:23:32;15.73;;;8.60;;
57707;SDS011;43540;51.690;9.562;2023-11-21T09:25:58;19.17;;;9.95;;
57707;SDS011;43540;51.690;9.562;2023-11-21T09:28:27;19.40;;;8.88;;
57707;SDS011;43540;51.690;9.562;2023-11-21T09:30:54;17.63;;;9.25;;
57707;SDS011;43540;51.690;9.562;2023-11-21T09:33:20;17.33;;;7.97;;
57707;SDS011;43540;51.690;9.562;2023-11-21T09:35:49;17.55;;;8.63;;
57707;SDS011;43540;51.690;9.562;2023-11-21T09:38:17;16.40;;;7.78;;
57707;SDS011;43540;51.690;9.562;2023-11-21T09:40:43;19.20;;;9.13;;
57707;SDS011;43540;51.690;9.562;2023-11-21T09:43:17;21.20;;;10.95;;
57707;SDS011;43540;51.690;9.562;2023-11-21T09:45:49;23.40;;;11.75;;
57707;SDS011;43540;51.690;9.562;2023-11-21T09:48:23;24.80;;;12.18;;
57707;SDS011;43540;51.690;9.562;2023-11-21T09:50:53;22.23;;;11.10;;
57707;SDS011;43540;51.690;9.562;2023-11-21T09:53:21;22.20;;;10.15;;
57707;SDS011;43540;51.690;9.562;2023-11-21T09:55:51;20.00;;;9.27;;
57707;SDS011;43540;51.690;9.562;2023-11-21T09:58:19;20.13;;;9.52;;
57707;SDS011;43540;51.690;9.562;2023-11-21T10:00:48;19.80;;;9.05;;
57707;SDS011;43540;51.690;9.562;2023-11-21T10:03:15;16.70;;;8.75;;
57707;SDS011;43540;51.690;9.562;2023-11-21T10:05:43;16.75;;;7.97;;
57707;SDS011;43540;51.690;9.562;2023-11-21T10:08:12;17.73;;;8.50;;
57707;SDS011;43540;51.690;9.562;2023-11-21T10:10:46;17.52;;;9.45;;
57707;SDS011;43540;51.690;9.562;2023-11-21T10:13:15;20.50;;;9.90;;
57707;SDS011;43540;51.690;9.562;2023-11-21T10:15:52;21.50;;;9.88;;
57707;SDS011;43540;51.690;9.562;2023-11-21T10:18:20;17.27;;;8.68;;
57707;SDS011;43540;51.690;9.562;2023-11-21T10:20:49;19.75;;;10.52;;
57707;SDS011;43540;51.690;9.562;2023-11-21T10:23:20;17.95;;;7.85;;
57707;SDS011;43540;51.690;9.562;2023-11-21T10:25:50;16.73;;;8.02;;
57707;SDS011;43540;51.690;9.562;2023-11-21T10:28:18;15.20;;;8.00;;
57707;SDS011;43540;51.690;9.562;2023-11-21T10:30:45;17.60;;;8.27;;
57707;SDS011;43540;51.690;9.562;2023-11-21T10:33:12;14.95;;;7.05;;
57707;SDS011;43540;51.690;9.562;2023-11-21T10:38:17;15.05;;;8.43;;
57707;SDS011;43540;51.690;9.562;2023-11-21T10:40:44;13.35;;;7.80;;
57707;SDS011;43540;51.690;9.562;2023-11-21T10:43:13;14.20;;;6.60;;
57707;SDS011;43540;51.690;9.562;2023-11-21T10:45:42;13.40;;;6.68;;
57707;SDS011;43540;51.690;9.562;2023-11-21T10:48:09;14.00;;;7.55;;
57707;SDS011;43540;51.690;9.562;2023-11-21T10:50:43;12.65;;;6.88;;
57707;SDS011;43540;51.690;9.562;2023-11-21T10:53:13;11.90;;;5.97;;
57707;SDS011;43540;51.690;9.562;2023-11-21T10:55:41;8.50;;;4.40;;
57707;SDS011;43540;51.690;9.562;2023-11-21T10:58:11;11.85;;;5.38;;
57707;SDS011;43540;51.690;9.562;2023-11-21T11:00:40;12.18;;;5.57;;
57707;SDS011;43540;51.690;9.562;2023-11-21T11:03:07;7.78;;;4.15;;
57707;SDS011;43540;51.690;9.562;2023-11-21T11:05:43;6.13;;;4.30;;
57707;SDS011;43540;51.690;9.562;2023-11-21T11:08:21;5.43;;;3.60;;
57707;SDS011;43540;51.690;9.562;2023-11-21T11:10:54;5.68;;;3.13;;
57707;SDS011;43540;51.690;9.562;2023-11-21T11:13:21;4.88;;;3.10;;
57707;SDS011;43540;51.690;9.562;2023-11-21T11:15:49;6.00;;;3.47;;
57707;SDS011;43540;51.690;9.562;2023-11-21T11:18:16;6.65;;;3.33;;
57707;SDS011;43540;51.690;9.562;2023-11-21T11:24:17;5.65;;;3.28;;
57707;SDS011;43540;51.690;9.562;2023-11-21T11:35:50;4.88;;;3.05;;
57707;SDS011;43540;51.690;9.562;2023-11-21T11:38:23;5.10;;;2.92;;
57707;SDS011;43540;51.690;9.562;2023-11-21T11:40:52;5.10;;;3.08;;
57707;SDS011;43540;51.690;9.562;2023-11-21T11:43:26;5.25;;;3.50;;
57707;SDS011;43540;51.690;9.562;2023-11-21T11:45:57;7.25;;;4.40;;
57707;SDS011;43540;51.690;9.562;2023-11-21T11:48:25;7.18;;;4.32;;
57707;SDS011;43540;51.690;9.562;2023-11-21T11:51:11;7.25;;;4.50;;
57707;SDS011;43540;51.690;9.562;2023-11-21T11:53:41;8.85;;;5.00;;
57707;SDS011;43540;51.690;9.562;2023-11-21T11:56:22;14.00;;;4.78;;
